createdAt,value
2022-08-16T11:07:43.633Z,100353.47
2022-08-16T11:09:51.287Z,100351.38
2022-08-16T11:12:19.863Z,100355.09
2022-08-16T11:17:40.074Z,100343.09
2022-08-16T11:23:05.525Z,100352.47
2022-08-16T11:31:13.704Z,100350.84
2022-08-16T11:33:57.853Z,100355.63
2022-08-16T11:36:28.198Z,100348.97
2022-08-16T11:39:00.628Z,100364.38
2022-08-16T11:41:32.270Z,100363.13
2022-08-16T11:44:01.826Z,100355.22
2022-08-16T11:46:44.259Z,100349.78
2022-08-16T11:49:15.854Z,100348.56
2022-08-16T11:51:45.597Z,100353.34
2022-08-16T11:54:21.336Z,100341.91
2022-08-16T11:56:57.119Z,100338.97
2022-08-16T11:59:29.973Z,100343.97
2022-08-16T12:02:31.241Z,100341.06
2022-08-16T12:04:52.052Z,100339.41
2022-08-16T12:07:23.568Z,100335.00
2022-08-16T12:09:54.198Z,100335.44
2022-08-16T12:12:23.481Z,100328.56
2022-08-16T12:14:59.784Z,100330.66
2022-08-16T12:17:32.375Z,100332.13
2022-08-16T12:20:04.791Z,100335.22
2022-08-16T12:22:33.898Z,100327.72
2022-08-16T12:25:11.672Z,100330.22
2022-08-16T12:27:41.044Z,100332.53
2022-08-16T12:30:21.321Z,100331.72
2022-08-16T12:32:58.525Z,100328.34
2022-08-16T12:35:28.313Z,100326.31
2022-08-16T12:37:59.698Z,100326.06
2022-08-16T12:40:33.332Z,100334.81
2022-08-16T12:43:03.844Z,100326.66
2022-08-16T12:45:38.039Z,100325.25
2022-08-16T12:48:34.987Z,100323.16
2022-08-16T12:51:20.065Z,100325.69
2022-08-16T12:53:54.614Z,100317.13
2022-08-16T12:56:26.549Z,100317.47
2022-08-16T12:58:57.656Z,100314.19
2022-08-16T13:01:31.855Z,100312.50
2022-08-16T13:04:19.643Z,100304.34
2022-08-16T13:06:52.489Z,100306.41
2022-08-16T13:09:26.698Z,100304.81
2022-08-16T13:12:19.685Z,100312.47
2022-08-16T13:14:50.102Z,100306.41
2022-08-16T13:17:26.496Z,100299.06
2022-08-16T13:20:08.942Z,100304.88
2022-08-16T13:22:47.132Z,100295.13
2022-08-16T13:25:22.575Z,100288.47
2022-08-16T13:28:15.197Z,100293.88
2022-08-16T13:30:46.390Z,100293.13
2022-08-16T13:33:29.242Z,100288.22
2022-08-16T13:36:00.744Z,100290.84
2022-08-16T13:38:36.441Z,100289.34
2022-08-16T13:41:12.851Z,100293.63
2022-08-16T13:43:42.259Z,100285.44
2022-08-16T13:46:11.354Z,100282.59
2022-08-16T13:48:44.344Z,100282.72
2022-08-16T13:51:17.613Z,100287.03
2022-08-16T13:53:54.433Z,100287.47
2022-08-16T13:56:34.205Z,100275.28
2022-08-16T13:59:19.941Z,100277.06
2022-08-16T14:01:59.575Z,100276.84
2022-08-16T14:04:30.149Z,100272.50
2022-08-16T14:07:01.507Z,100274.13
2022-08-16T14:09:31.957Z,100276.22
2022-08-16T14:12:04.278Z,100270.41
2022-08-16T14:14:38.079Z,100267.94
2022-08-16T14:17:09.751Z,100260.84
2022-08-16T14:19:44.781Z,100264.97
2022-08-16T14:22:30.513Z,100268.97
2022-08-16T14:25:07.055Z,100261.31
2022-08-16T14:27:36.520Z,100260.28
2022-08-16T14:30:10.196Z,100258.22
2022-08-16T14:32:46.863Z,100260.72
2022-08-16T14:35:48.206Z,100263.22
2022-08-16T14:38:23.690Z,100257.84
2022-08-16T14:40:54.881Z,100260.38
2022-08-16T14:43:25.746Z,100253.81
2022-08-16T14:45:58.937Z,100256.63
2022-08-16T14:48:28.108Z,100259.75
2022-08-16T14:50:56.558Z,100261.03
2022-08-16T14:53:26.401Z,100258.06
2022-08-16T14:55:55.401Z,100248.09
2022-08-16T14:58:34.498Z,100253.16
2022-08-16T15:01:09.757Z,100252.28
2022-08-16T15:03:44.666Z,100249.13
2022-08-16T15:06:14.577Z,100242.63
2022-08-16T15:08:45.808Z,100244.47
2022-08-16T15:11:15.166Z,100242.97
2022-08-16T15:13:46.520Z,100253.94
2022-08-16T15:16:16.704Z,100251.22
2022-08-16T15:18:47.294Z,100251.41
2022-08-16T15:21:16.011Z,100252.44
2022-08-16T15:23:44.850Z,100244.16
2022-08-16T15:26:29.670Z,100243.91
2022-08-16T15:29:04.255Z,100250.56
2022-08-16T15:31:37.922Z,100248.97
2022-08-16T15:34:18.987Z,100239.63
2022-08-16T15:36:51.261Z,100246.06
2022-08-16T15:39:25.579Z,100243.91
2022-08-16T15:42:11.285Z,100247.84
2022-08-16T15:44:52.150Z,100246.91
2022-08-16T15:47:34.607Z,100245.84
2022-08-16T15:50:04.509Z,100248.44
2022-08-16T15:52:36.605Z,100251.00
2022-08-16T15:55:23.693Z,100245.91
2022-08-16T15:57:58.526Z,100239.69
2022-08-16T16:00:27.771Z,100236.56
2022-08-16T16:03:18.576Z,100235.50
2022-08-16T16:05:52.190Z,100233.94
2022-08-16T16:08:25.340Z,100228.34
2022-08-16T16:10:56.895Z,100231.28
2022-08-16T16:13:26.346Z,100228.56
2022-08-16T16:15:57.504Z,100240.31
2022-08-16T16:18:30.406Z,100234.66
2022-08-16T16:21:20.641Z,100234.50
2022-08-16T16:23:55.140Z,100233.34
2022-08-16T16:26:26.923Z,100229.66
2022-08-16T16:29:08.693Z,100236.19
2022-08-16T16:31:59.106Z,100241.81
2022-08-16T16:34:32.412Z,100238.19
2022-08-16T16:37:05.195Z,100241.41
2022-08-16T16:39:39.097Z,100234.16
2022-08-16T16:42:25.367Z,100229.53
2022-08-16T16:45:01.707Z,100226.84
2022-08-16T16:47:40.558Z,100238.97
2022-08-16T16:50:12.685Z,100240.41
2022-08-16T16:52:44.649Z,100231.63
2022-08-16T16:55:14.701Z,100231.78
2022-08-16T16:58:03.340Z,100229.75
2022-08-16T17:00:38.339Z,100232.97
2022-08-16T17:03:15.396Z,100227.06
2022-08-16T17:06:00.148Z,100231.88
2022-08-16T17:08:32.125Z,100231.13
2022-08-16T17:11:00.777Z,100240.41
2022-08-16T17:13:30.846Z,100236.88
2022-08-16T17:16:01.274Z,100235.66
2022-08-16T17:19:15.609Z,100238.97
2022-08-16T17:21:21.586Z,100239.69
2022-08-16T17:23:58.359Z,100231.78
2022-08-16T17:26:30.956Z,100240.03
2022-08-16T17:29:10.772Z,100241.41
2022-08-16T17:31:43.443Z,100240.63
2022-08-16T17:34:28.564Z,100242.25
2022-08-16T17:37:05.305Z,100242.19
2022-08-16T17:39:58.106Z,100240.38
2022-08-16T17:42:26.526Z,100243.34
2022-08-16T17:44:55.064Z,100242.25
2022-08-16T17:47:23.649Z,100242.25
2022-08-16T17:49:52.685Z,100241.47
2022-08-16T17:52:21.076Z,100247.34
2022-08-16T17:54:49.646Z,100248.38
2022-08-16T17:57:18.426Z,100255.41
2022-08-16T17:59:46.821Z,100257.09
2022-08-16T18:02:43.619Z,100255.81
2022-08-16T18:05:05.846Z,100257.09
2022-08-16T18:07:37.955Z,100256.31
2022-08-16T18:10:08.284Z,100258.59
2022-08-16T18:12:51.159Z,100259.47
2022-08-16T18:15:25.737Z,100262.78
2022-08-16T18:17:54.207Z,100261.56
2022-08-16T18:20:41.328Z,100256.53
2022-08-16T18:23:17.631Z,100260.84
2022-08-16T18:25:57.636Z,100266.19
2022-08-16T18:28:27.277Z,100269.94
2022-08-16T18:31:01.097Z,100265.59
2022-08-16T18:33:32.764Z,100280.63
2022-08-16T18:36:06.514Z,100271.63
2022-08-16T18:38:50.775Z,100275.19
2022-08-16T18:41:21.238Z,100271.25
2022-08-16T18:43:54.405Z,100286.66
2022-08-16T18:46:43.526Z,100284.19
2022-08-16T18:49:14.105Z,100286.91
2022-08-16T18:51:46.846Z,100287.31
2022-08-16T18:54:18.495Z,100287.53
2022-08-16T18:56:56.605Z,100287.13
2022-08-16T18:59:29.804Z,100295.06
2022-08-16T19:02:00.453Z,100293.81
2022-08-16T19:04:47.607Z,100297.56
2022-08-16T19:07:30.643Z,100289.69
2022-08-16T19:10:01.908Z,100296.75
2022-08-16T19:12:38.437Z,100291.31
2022-08-16T19:15:21.697Z,100292.81
2022-08-16T19:17:50.455Z,100299.28
2022-08-16T19:20:21.280Z,100295.97
2022-08-16T19:23:05.485Z,100303.03
2022-08-16T19:25:47.653Z,100299.66
2022-08-16T19:28:50.709Z,100309.69
2022-08-16T19:31:30.327Z,100320.09
2022-08-16T19:33:59.107Z,100327.63
2022-08-16T19:36:36.157Z,100333.44
2022-08-16T19:39:15.427Z,100334.72
2022-08-16T19:41:52.083Z,100334.75
2022-08-16T19:44:23.382Z,100343.50
2022-08-16T19:46:52.003Z,100341.44
2022-08-16T19:49:20.464Z,100343.53
2022-08-16T19:51:48.908Z,100337.91
2022-08-16T19:54:18.131Z,100343.75
2022-08-16T19:56:46.809Z,100352.91
2022-08-16T19:59:19.291Z,100342.69
2022-08-16T20:01:52.365Z,100349.78
2022-08-16T20:04:22.207Z,100346.47
2022-08-16T20:06:53.040Z,100356.66
2022-08-16T20:09:24.614Z,100353.97
2022-08-16T20:11:53.775Z,100363.53
2022-08-16T20:14:26.425Z,100370.63
2022-08-16T20:16:57.587Z,100375.81
2022-08-16T20:19:27.813Z,100372.91
2022-08-16T20:21:57.089Z,100379.34
2022-08-16T20:24:35.733Z,100387.06
2022-08-16T20:27:07.872Z,100380.38
2022-08-16T20:29:37.618Z,100387.06
2022-08-16T20:32:08.320Z,100385.22
2022-08-16T20:34:38.943Z,100390.38
2022-08-16T20:37:12.477Z,100387.25
2022-08-16T20:39:44.381Z,100394.13
2022-08-16T20:42:15.647Z,100404.75
2022-08-16T20:44:44.142Z,100396.81
2022-08-16T20:47:12.675Z,100395.78
2022-08-16T20:49:41.558Z,100406.81
2022-08-16T20:52:18.985Z,100401.63
2022-08-16T20:54:48.127Z,100408.47
2022-08-16T20:57:16.895Z,100399.53
2022-08-16T20:59:49.878Z,100405.75
2022-08-16T21:02:26.121Z,100412.41
2022-08-16T21:04:55.954Z,100420.94
2022-08-16T21:07:24.927Z,100429.66
2022-08-16T21:09:53.972Z,100419.88
2022-08-16T21:12:22.522Z,100422.81
2022-08-16T21:14:51.776Z,100425.72
2022-08-16T21:17:20.315Z,100431.13
2022-08-16T21:19:48.674Z,100425.91
2022-08-16T21:22:21.644Z,100418.22
2022-08-16T21:24:53.900Z,100427.59
2022-08-16T21:27:24.307Z,100427.56
2022-08-16T21:29:54.660Z,100436.50
2022-08-16T21:32:35.674Z,100429.25
2022-08-16T21:35:10.858Z,100428.84
2022-08-16T21:37:39.902Z,100431.31
2022-08-16T21:40:09.396Z,100428.44
2022-08-16T21:42:40.001Z,100432.97
2022-08-16T21:45:12.811Z,100439.25
2022-08-16T21:47:42.231Z,100440.88
2022-08-16T21:50:11.719Z,100450.06
2022-08-16T21:52:40.187Z,100446.72
2022-08-16T21:55:09.425Z,100448.81
2022-08-16T21:57:38.156Z,100444.59
2022-08-16T22:00:12.084Z,100450.44
2022-08-16T22:02:41.803Z,100453.81
2022-08-16T22:05:10.321Z,100456.25
2022-08-16T22:07:38.782Z,100451.28
2022-08-16T22:11:06.189Z,100462.53
2022-08-16T22:12:56.866Z,100461.69
2022-08-16T22:15:26.038Z,100463.78
2022-08-16T22:17:59.434Z,100465.44
2022-08-16T22:20:29.323Z,100466.47
2022-08-16T22:23:14.579Z,100470.84
2022-08-16T22:25:45.365Z,100470.63
2022-08-16T22:28:14.244Z,100471.66
2022-08-16T22:30:42.723Z,100470.41
2022-08-16T22:33:23.356Z,100473.53
2022-08-16T22:35:55.382Z,100468.75
2022-08-16T22:38:55.610Z,100469.56
2022-08-16T22:41:13.076Z,100491.19
2022-08-16T22:43:41.574Z,100501.19
2022-08-16T22:46:11.244Z,100488.69
2022-08-16T22:48:42.586Z,100484.72
2022-08-16T22:51:11.637Z,100479.91
2022-08-16T22:53:40.062Z,100476.63
2022-08-16T22:56:08.575Z,100481.41
2022-08-16T22:58:37.549Z,100490.81
2022-08-16T23:01:08.497Z,100489.13
2022-08-16T23:03:37.984Z,100483.47
2022-08-16T23:06:07.337Z,100479.06
2022-08-16T23:08:40.638Z,100479.31
2022-08-16T23:11:13.699Z,100475.59
2022-08-16T23:13:52.449Z,100476.16
2022-08-16T23:16:33.822Z,100479.69
2022-08-16T23:19:12.430Z,100473.28
2022-08-16T23:21:47.187Z,100476.56
2022-08-16T23:24:19.584Z,100469.91
2022-08-16T23:26:49.249Z,100462.00
2022-08-16T23:29:25.277Z,100450.38
2022-08-16T23:31:58.414Z,100448.69
2022-08-16T23:34:28.230Z,100450.72
2022-08-16T23:36:57.402Z,100447.38
2022-08-16T23:39:26.109Z,100435.31
2022-08-16T23:41:55.886Z,100428.69
2022-08-16T23:44:58.738Z,100427.44
2022-08-16T23:47:13.607Z,100440.13
2022-08-16T23:49:55.983Z,100441.59
2022-08-16T23:52:42.236Z,100444.28
2022-08-16T23:55:19.683Z,100451.53
2022-08-16T23:57:48.446Z,100461.13
